createdAt,value
2023-05-10T00:00:00.722Z,6.21
2023-05-10T00:05:03.878Z,6.18
2023-05-10T00:10:07.571Z,6.16
2023-05-10T00:15:12.173Z,6.09
2023-05-10T00:20:15.172Z,6.03
2023-05-10T00:25:18.222Z,5.97
2023-05-10T00:30:21.309Z,5.88
2023-05-10T00:35:24.414Z,5.80
2023-05-10T00:40:27.637Z,5.71
2023-05-10T00:45:33.891Z,5.60
2023-05-10T00:50:36.938Z,5.55
2023-05-10T00:55:39.897Z,5.51
2023-05-10T01:00:44.844Z,5.37
2023-05-10T01:05:47.887Z,5.22
2023-05-10T01:10:51.049Z,5.08
2023-05-10T01:15:54.371Z,5.07
2023-05-10T01:21:33.085Z,5.07
2023-05-10T01:27:15.999Z,4.98
2023-05-10T01:33:02.441Z,4.98
2023-05-10T01:38:28.885Z,4.95
2023-05-10T01:43:49.380Z,4.95
2023-05-10T01:48:56.102Z,4.99
2023-05-10T01:54:05.723Z,5.02
2023-05-10T01:59:16.471Z,5.02
2023-05-10T02:04:23.108Z,5.04
2023-05-10T02:09:30.980Z,5.03
2023-05-10T02:14:37.744Z,5.03
2023-05-10T02:19:43.122Z,5.05
2023-05-10T02:24:48.622Z,5.02
2023-05-10T02:29:53.474Z,5.00
2023-05-10T02:34:58.531Z,5.00
2023-05-10T02:40:04.687Z,5.08
2023-05-10T02:45:20.723Z,5.16
2023-05-10T02:50:30.253Z,5.17
2023-05-10T02:55:40.071Z,5.18
2023-05-10T03:00:42.928Z,5.21
2023-05-10T03:05:46.975Z,5.27
2023-05-10T03:11:09.426Z,5.33
2023-05-10T03:16:52.487Z,5.79
2023-05-10T03:22:04.724Z,6.64
2023-05-10T03:27:09.359Z,7.28
2023-05-10T03:32:12.389Z,7.73
2023-05-10T03:37:15.364Z,8.15
2023-05-10T03:42:18.936Z,8.66
2023-05-10T03:47:21.811Z,8.97
2023-05-10T03:52:24.778Z,9.28
2023-05-10T03:57:27.615Z,9.44
2023-05-10T04:02:31.454Z,9.54
2023-05-10T04:07:34.384Z,9.79
2023-05-10T04:12:37.336Z,10.11
2023-05-10T04:17:40.233Z,10.59
2023-05-10T04:22:43.189Z,10.98
2023-05-10T04:27:46.011Z,11.33
2023-05-10T04:32:49.091Z,11.62
2023-05-10T04:37:52.032Z,11.89
2023-05-10T04:42:55.518Z,12.10
2023-05-10T04:47:58.402Z,12.38
2023-05-10T04:53:01.529Z,12.65
2023-05-10T04:58:04.352Z,12.68
2023-05-10T05:10:09.896Z,13.46
2023-05-10T05:15:12.821Z,13.58
2023-05-10T05:20:15.933Z,13.57
2023-05-10T05:25:19.310Z,13.56
2023-05-10T05:30:22.195Z,13.63
2023-05-10T05:35:25.464Z,13.92
2023-05-10T05:40:28.324Z,14.26
2023-05-10T05:45:31.150Z,14.48
2023-05-10T05:50:34.044Z,14.79
2023-05-10T05:55:36.936Z,15.05
2023-05-10T06:00:39.892Z,15.23
2023-05-10T06:05:43.111Z,15.28
2023-05-10T06:10:46.719Z,15.37
2023-05-10T06:15:49.546Z,15.55
2023-05-10T06:20:52.837Z,15.81
2023-05-10T06:25:55.884Z,16.00
2023-05-10T06:30:58.894Z,16.26
2023-05-10T06:36:01.914Z,16.29
2023-05-10T06:41:04.860Z,16.59
2023-05-10T06:46:08.436Z,16.96
2023-05-10T06:51:11.615Z,17.10
2023-05-10T06:56:15.177Z,17.22
2023-05-10T07:01:18.168Z,17.29
2023-05-10T07:06:32.389Z,17.61
2023-05-10T07:11:37.311Z,17.94
2023-05-10T07:16:40.312Z,18.34
2023-05-10T07:21:44.430Z,18.55
2023-05-10T07:26:47.283Z,18.43
2023-05-10T07:31:50.916Z,18.64
2023-05-10T07:36:54.182Z,19.10
2023-05-10T07:41:57.564Z,19.27
2023-05-10T07:47:00.728Z,19.21
2023-05-10T07:52:05.579Z,18.93
2023-05-10T07:57:10.549Z,18.81
2023-05-10T08:02:13.562Z,18.87
2023-05-10T08:07:16.640Z,19.01
2023-05-10T08:12:19.848Z,19.16
2023-05-10T08:17:24.686Z,19.04
2023-05-10T08:22:29.144Z,19.17
2023-05-10T08:27:32.739Z,19.24
2023-05-10T08:32:36.446Z,19.33
2023-05-10T08:37:40.619Z,19.35
2023-05-10T08:42:56.513Z,19.41
2023-05-10T08:48:03.202Z,19.57
2023-05-10T08:53:11.952Z,19.66
2023-05-10T08:58:15.574Z,19.44
2023-05-10T09:03:19.164Z,19.43
2023-05-10T09:08:26.431Z,19.46
2023-05-10T09:13:29.839Z,19.44
2023-05-10T09:18:33.145Z,19.60
2023-05-10T09:23:36.177Z,19.62
2023-05-10T09:28:57.734Z,19.44
2023-05-10T09:34:02.493Z,19.62
2023-05-10T09:39:05.799Z,19.69
2023-05-10T09:44:10.388Z,19.67
2023-05-10T09:49:16.023Z,19.54
2023-05-10T09:54:38.734Z,19.37
2023-05-10T09:59:52.313Z,19.55
2023-05-10T10:05:09.883Z,19.50
2023-05-10T10:10:42.472Z,19.74
2023-05-10T10:15:52.958Z,19.84
2023-05-10T10:21:14.086Z,20.03
2023-05-10T10:26:35.301Z,20.13
2023-05-10T10:32:24.931Z,20.05
2023-05-10T10:43:29.573Z,19.89
2023-05-10T10:49:18.670Z,20.30
2023-05-10T10:54:29.518Z,20.33
2023-05-10T10:59:32.718Z,20.43
2023-05-10T11:04:47.687Z,20.63
2023-05-10T11:09:50.933Z,20.51
2023-05-10T11:14:59.074Z,20.39
2023-05-10T11:20:16.253Z,20.46
2023-05-10T11:25:21.446Z,20.51
2023-05-10T11:30:25.688Z,20.55
2023-05-10T11:35:29.273Z,20.63
2023-05-10T11:40:32.153Z,20.77
2023-05-10T11:45:36.158Z,20.94
2023-05-10T11:50:39.322Z,21.08
2023-05-10T11:55:42.333Z,20.97
2023-05-10T12:00:46.479Z,20.88
2023-05-10T12:05:49.674Z,20.97
2023-05-10T12:10:54.540Z,20.62
2023-05-10T12:16:00.892Z,20.76
2023-05-10T12:21:05.465Z,20.92
2023-05-10T12:26:11.586Z,21.08
2023-05-10T12:31:14.889Z,21.10
2023-05-10T12:36:24.194Z,21.30
2023-05-10T12:41:27.244Z,21.52
2023-05-10T12:46:30.648Z,21.50
2023-05-10T12:51:33.831Z,21.53
2023-05-10T12:56:38.167Z,21.90
2023-05-10T13:01:42.557Z,21.78
2023-05-10T13:06:47.425Z,21.81
2023-05-10T13:11:50.822Z,21.96
2023-05-10T13:16:54.936Z,21.85
2023-05-10T13:21:58.259Z,21.92
2023-05-10T13:27:01.745Z,21.89
2023-05-10T13:32:05.297Z,21.81
2023-05-10T13:37:08.359Z,22.11
2023-05-10T13:42:12.119Z,22.22
2023-05-10T13:47:18.129Z,22.26
2023-05-10T13:52:21.269Z,22.27
2023-05-10T13:57:24.977Z,22.20
2023-05-10T14:02:28.703Z,22.22
2023-05-10T14:07:31.892Z,22.17
2023-05-10T14:12:35.224Z,21.98
2023-05-10T14:17:38.673Z,22.07
2023-05-10T14:22:41.986Z,22.01
2023-05-10T14:27:45.293Z,22.07
2023-05-10T14:32:48.477Z,22.09
2023-05-10T14:37:52.502Z,22.06
2023-05-10T14:42:57.824Z,22.01
2023-05-10T14:48:02.134Z,21.96
2023-05-10T14:53:05.105Z,21.87
2023-05-10T14:58:08.010Z,21.79
2023-05-10T15:03:11.107Z,21.75
2023-05-10T15:08:14.349Z,21.64
2023-05-10T15:13:17.561Z,21.50
2023-05-10T15:18:20.591Z,21.48
2023-05-10T15:23:23.965Z,21.39
2023-05-10T15:28:26.851Z,21.31
2023-05-10T15:33:29.777Z,21.32
2023-05-10T15:38:32.626Z,21.31
2023-05-10T15:43:35.458Z,21.38
2023-05-10T15:48:40.198Z,21.41
2023-05-10T15:53:56.367Z,21.15
2023-05-10T15:59:01.863Z,20.91
2023-05-10T16:04:04.852Z,20.86
2023-05-10T16:09:08.723Z,20.78
2023-05-10T16:14:11.720Z,20.80
2023-05-10T16:19:16.042Z,20.70
2023-05-10T16:24:19.065Z,20.48
2023-05-10T16:29:22.013Z,20.39
2023-05-10T16:34:25.452Z,20.34
2023-05-10T16:39:28.375Z,20.30
2023-05-10T16:44:31.460Z,20.31
2023-05-10T16:54:39.613Z,20.20
2023-05-10T16:59:42.727Z,20.10
2023-05-10T17:04:46.237Z,20.07
2023-05-10T17:09:49.172Z,19.91
2023-05-10T17:14:55.327Z,19.76
2023-05-10T17:19:58.810Z,19.63
2023-05-10T17:25:01.869Z,19.52
2023-05-10T17:30:06.048Z,19.44
2023-05-10T17:35:09.174Z,19.36
2023-05-10T17:40:12.807Z,19.30
2023-05-10T17:45:16.729Z,19.25
2023-05-10T17:50:20.003Z,19.06
2023-05-10T17:55:22.835Z,18.77
2023-05-10T18:00:25.969Z,18.48
2023-05-10T18:05:28.960Z,18.14
2023-05-10T18:10:32.424Z,17.67
2023-05-10T18:15:35.477Z,17.21
2023-05-10T18:20:38.402Z,16.59
2023-05-10T18:25:41.349Z,16.03
2023-05-10T18:30:44.309Z,15.59
2023-05-10T18:35:47.453Z,15.19
2023-05-10T18:40:51.179Z,14.85
2023-05-10T18:45:54.401Z,14.56
2023-05-10T18:50:57.300Z,14.30
2023-05-10T18:56:00.263Z,14.06
2023-05-10T19:01:03.337Z,13.84
2023-05-10T19:06:06.428Z,13.63
2023-05-10T19:11:09.362Z,13.46
2023-05-10T19:16:17.076Z,13.28
2023-05-10T19:21:21.378Z,13.10
2023-05-10T19:26:24.463Z,12.94
2023-05-10T19:31:27.850Z,12.77
2023-05-10T19:36:33.272Z,12.61
2023-05-10T19:41:36.211Z,12.31
2023-05-10T19:46:39.178Z,12.01
2023-05-10T19:51:42.179Z,11.84
2023-05-10T19:56:44.993Z,11.66
2023-05-10T20:01:47.835Z,11.38
2023-05-10T20:06:50.719Z,11.10
2023-05-10T20:11:53.670Z,10.83
2023-05-10T20:16:56.818Z,10.68
2023-05-10T20:21:59.927Z,10.45
2023-05-10T20:27:04.609Z,10.21
2023-05-10T20:32:07.525Z,10.06
2023-05-10T20:37:10.403Z,9.98
2023-05-10T20:42:13.233Z,9.90
2023-05-10T20:47:16.987Z,9.81
2023-05-10T20:52:20.183Z,9.71
2023-05-10T20:57:24.846Z,9.63
2023-05-10T21:02:27.834Z,9.55
2023-05-10T21:07:32.890Z,9.53
2023-05-10T21:12:35.827Z,9.53
2023-05-10T21:17:38.656Z,9.51
2023-05-10T21:22:41.534Z,9.43
2023-05-10T21:27:44.636Z,9.35
2023-05-10T21:32:47.640Z,9.24
2023-05-10T21:37:50.461Z,9.22
2023-05-10T21:42:53.375Z,9.07
2023-05-10T21:47:56.486Z,8.93
2023-05-10T21:52:59.768Z,8.72
2023-05-10T21:58:02.635Z,8.39
2023-05-10T22:03:05.864Z,8.13
2023-05-10T22:08:08.978Z,7.97
2023-05-10T22:13:11.803Z,7.91
2023-05-10T22:18:14.678Z,7.94
2023-05-10T22:23:17.487Z,7.82
2023-05-10T22:28:20.462Z,7.71
2023-05-10T22:33:23.288Z,7.72
2023-05-10T22:38:26.238Z,7.60
2023-05-10T22:43:29.157Z,7.46
2023-05-10T22:48:34.594Z,7.37
2023-05-10T22:53:37.566Z,7.26
2023-05-10T22:58:40.584Z,7.20
2023-05-10T23:03:43.443Z,7.14
2023-05-10T23:08:46.223Z,7.09
2023-05-10T23:13:49.288Z,7.09
2023-05-10T23:18:52.168Z,7.06
2023-05-10T23:23:55.061Z,7.07
2023-05-10T23:28:57.879Z,7.10
2023-05-10T23:34:00.699Z,7.12
2023-05-10T23:39:03.627Z,7.13
2023-05-10T23:44:06.709Z,7.16
2023-05-10T23:49:09.588Z,7.15
2023-05-10T23:54:12.472Z,7.13
2023-05-10T23:59:15.498Z,7.14
